sensor_id;sensor_type;location;lat;lon;timestamp;P1;P2;P0
45351;PMS7003;31086;51.702;-1.106;2022-08-19T00:00:37;3;1;
45351;PMS7003;31086;51.702;-1.106;2022-08-19T00:03:05;2;2;
45351;PMS7003;31086;51.702;-1.106;2022-08-19T00:05:33;1;0;
45351;PMS7003;31086;51.702;-1.106;2022-08-19T00:08:01;0;0;
45351;PMS7003;31086;51.702;-1.106;2022-08-19T00:10:29;1;1;
45351;PMS7003;31086;51.702;-1.106;2022-08-19T00:12:56;1;1;
45351;PMS7003;31086;51.702;-1.106;2022-08-19T00:15:23;2;2;
45351;PMS7003;31086;51.702;-1.106;2022-08-19T00:17:51;2;1;
45351;PMS7003;31086;51.702;-1.106;2022-08-19T00:20:20;1;1;
45351;PMS7003;31086;51.702;-1.106;2022-08-19T00:22:47;3;2;
45351;PMS7003;31086;51.702;-1.106;2022-08-19T00:25:15;1;1;
45351;PMS7003;31086;51.702;-1.106;2022-08-19T00:27:43;3;2;
45351;PMS7003;31086;51.702;-1.106;2022-08-19T00:30:10;2;1;
45351;PMS7003;31086;51.702;-1.106;2022-08-19T00:32:38;1;1;
45351;PMS7003;31086;51.702;-1.106;2022-08-19T00:35:05;3;2;
45351;PMS7003;31086;51.702;-1.106;2022-08-19T00:37:34;1;0;
45351;PMS7003;31086;51.702;-1.106;2022-08-19T00:40:03;3;2;
45351;PMS7003;31086;51.702;-1.106;2022-08-19T00:42:32;2;1;
45351;PMS7003;31086;51.702;-1.106;2022-08-19T00:44:59;2;1;
45351;PMS7003;31086;51.702;-1.106;2022-08-19T00:47:27;3;2;
45351;PMS7003;31086;51.702;-1.106;2022-08-19T00:49:55;2;2;
45351;PMS7003;31086;51.702;-1.106;2022-08-19T00:52:26;2;2;
45351;PMS7003;31086;51.702;-1.106;2022-08-19T00:54:58;4;3;
45351;PMS7003;31086;51.702;-1.106;2022-08-19T00:57:27;0;0;
45351;PMS7003;31086;51.702;-1.106;2022-08-19T01:00:06;1;1;
45351;PMS7003;31086;51.702;-1.106;2022-08-19T01:02:37;1;0;
45351;PMS7003;31086;51.702;-1.106;2022-08-19T01:05:08;1;1;
45351;PMS7003;31086;51.702;-1.106;2022-08-19T01:07:38;0;0;
45351;PMS7003;31086;51.702;-1.106;2022-08-19T01:10:07;1;0;
45351;PMS7003;31086;51.702;-1.106;2022-08-19T01:12:36;0;0;
45351;PMS7003;31086;51.702;-1.106;2022-08-19T01:15:06;0;0;
45351;PMS7003;31086;51.702;-1.106;2022-08-19T01:17:35;0;0;
45351;PMS7003;31086;51.702;-1.106;2022-08-19T01:20:07;0;0;
45351;PMS7003;31086;51.702;-1.106;2022-08-19T01:22:39;0;0;
45351;PMS7003;31086;51.702;-1.106;2022-08-19T01:25:09;0;0;
45351;PMS7003;31086;51.702;-1.106;2022-08-19T01:27:37;0;0;
45351;PMS7003;31086;51.702;-1.106;2022-08-19T01:30:06;0;0;
45351;PMS7003;31086;51.702;-1.106;2022-08-19T01:32:36;1;0;
45351;PMS7003;31086;51.702;-1.106;2022-08-19T01:35:04;0;0;
45351;PMS7003;31086;51.702;-1.106;2022-08-19T01:37:41;0;0;
45351;PMS7003;31086;51.702;-1.106;2022-08-19T01:40:10;0;0;
45351;PMS7003;31086;51.702;-1.106;2022-08-19T01:42:37;0;0;
45351;PMS7003;31086;51.702;-1.106;2022-08-19T01:45:05;1;0;
45351;PMS7003;31086;51.702;-1.106;2022-08-19T01:47:33;0;0;
45351;PMS7003;31086;51.702;-1.106;2022-08-19T01:50:03;0;0;
45351;PMS7003;31086;51.702;-1.106;2022-08-19T01:52:32;0;0;
45351;PMS7003;31086;51.702;-1.106;2022-08-19T01:55:01;2;0;
45351;PMS7003;31086;51.702;-1.106;2022-08-19T01:57:29;0;0;
45351;PMS7003;31086;51.702;-1.106;2022-08-19T01:59:56;0;0;
45351;PMS7003;31086;51.702;-1.106;2022-08-19T02:02:23;0;0;
45351;PMS7003;31086;51.702;-1.106;2022-08-19T02:04:50;0;0;
45351;PMS7003;31086;51.702;-1.106;2022-08-19T02:07:18;0;0;
45351;PMS7003;31086;51.702;-1.106;2022-08-19T02:09:46;1;0;
45351;PMS7003;31086;51.702;-1.106;2022-08-19T02:12:13;3;1;
45351;PMS7003;31086;51.702;-1.106;2022-08-19T02:14:41;3;2;
45351;PMS7003;31086;51.702;-1.106;2022-08-19T02:17:09;1;1;
45351;PMS7003;31086;51.702;-1.106;2022-08-19T02:19:37;1;1;
45351;PMS7003;31086;51.702;-1.106;2022-08-19T02:22:04;0;0;
45351;PMS7003;31086;51.702;-1.106;2022-08-19T02:24:32;1;1;
45351;PMS7003;31086;51.702;-1.106;2022-08-19T02:26:59;0;0;
45351;PMS7003;31086;51.702;-1.106;2022-08-19T02:29:26;1;1;
45351;PMS7003;31086;51.702;-1.106;2022-08-19T02:31:53;2;2;
45351;PMS7003;31086;51.702;-1.106;2022-08-19T02:34:20;0;0;
45351;PMS7003;31086;51.702;-1.106;2022-08-19T02:36:47;1;1;
45351;PMS7003;31086;51.702;-1.106;2022-08-19T02:39:14;2;2;
45351;PMS7003;31086;51.702;-1.106;2022-08-19T02:41:42;2;1;
45351;PMS7003;31086;51.702;-1.106;2022-08-19T02:44:09;3;1;
45351;PMS7003;31086;51.702;-1.106;2022-08-19T02:46:36;3;1;
45351;PMS7003;31086;51.702;-1.106;2022-08-19T02:49:04;0;0;
45351;PMS7003;31086;51.702;-1.106;2022-08-19T02:51:33;0;0;
45351;PMS7003;31086;51.702;-1.106;2022-08-19T02:54:02;1;0;
45351;PMS7003;31086;51.702;-1.106;2022-08-19T02:56:30;0;0;
45351;PMS7003;31086;51.702;-1.106;2022-08-19T02:59:00;1;0;
45351;PMS7003;31086;51.702;-1.106;2022-08-19T03:01:29;0;0;
45351;PMS7003;31086;51.702;-1.106;2022-08-19T03:03:59;0;0;
45351;PMS7003;31086;51.702;-1.106;2022-08-19T03:06:31;0;0;
45351;PMS7003;31086;51.702;-1.106;2022-08-19T03:08:58;0;0;
45351;PMS7003;31086;51.702;-1.106;2022-08-19T03:11:27;0;0;
45351;PMS7003;31086;51.702;-1.106;2022-08-19T03:13:57;0;0;
45351;PMS7003;31086;51.702;-1.106;2022-08-19T03:16:26;0;0;
45351;PMS7003;31086;51.702;-1.106;2022-08-19T03:19:01;1;0;
45351;PMS7003;31086;51.702;-1.106;2022-08-19T03:21:29;0;0;
45351;PMS7003;31086;51.702;-1.106;2022-08-19T03:24:00;0;0;
45351;PMS7003;31086;51.702;-1.106;2022-08-19T03:26:29;0;0;
45351;PMS7003;31086;51.702;-1.106;2022-08-19T03:28:56;1;0;
45351;PMS7003;31086;51.702;-1.106;2022-08-19T03:31:23;0;0;
45351;PMS7003;31086;51.702;-1.106;2022-08-19T03:33:52;0;0;
45351;PMS7003;31086;51.702;-1.106;2022-08-19T03:36:20;0;0;
45351;PMS7003;31086;51.702;-1.106;2022-08-19T03:38:49;0;0;
45351;PMS7003;31086;51.702;-1.106;2022-08-19T03:41:20;0;0;
45351;PMS7003;31086;51.702;-1.106;2022-08-19T03:43:51;0;0;
45351;PMS7003;31086;51.702;-1.106;2022-08-19T03:46:21;0;0;
45351;PMS7003;31086;51.702;-1.106;2022-08-19T03:48:50;0;0;
45351;PMS7003;31086;51.702;-1.106;2022-08-19T03:51:20;0;0;
45351;PMS7003;31086;51.702;-1.106;2022-08-19T03:53:49;1;0;
45351;PMS7003;31086;51.702;-1.106;2022-08-19T03:56:16;0;0;
45351;PMS7003;31086;51.702;-1.106;2022-08-19T03:58:43;0;0;
45351;PMS7003;31086;51.702;-1.106;2022-08-19T04:01:12;0;0;
45351;PMS7003;31086;51.702;-1.106;2022-08-19T04:03:42;0;0;
45351;PMS7003;31086;51.702;-1.106;2022-08-19T04:06:10;0;0;
45351;PMS7003;31086;51.702;-1.106;2022-08-19T04:08:39;0;0;
45351;PMS7003;31086;51.702;-1.106;2022-08-19T04:11:07;0;0;
45351;PMS7003;31086;51.702;-1.106;2022-08-19T04:13:34;0;0;
45351;PMS7003;31086;51.702;-1.106;2022-08-19T04:16:02;0;0;
45351;PMS7003;31086;51.702;-1.106;2022-08-19T04:18:29;0;0;
45351;PMS7003;31086;51.702;-1.106;2022-08-19T04:20:57;0;0;
45351;PMS7003;31086;51.702;-1.106;2022-08-19T04:23:24;0;0;
45351;PMS7003;31086;51.702;-1.106;2022-08-19T04:25:52;0;0;
45351;PMS7003;31086;51.702;-1.106;2022-08-19T04:28:19;1;0;
45351;PMS7003;31086;51.702;-1.106;2022-08-19T04:30:48;0;0;
45351;PMS7003;31086;51.702;-1.106;2022-08-19T04:33:17;0;0;
45351;PMS7003;31086;51.702;-1.106;2022-08-19T04:35:48;0;0;
45351;PMS7003;31086;51.702;-1.106;2022-08-19T04:38:18;0;0;
45351;PMS7003;31086;51.702;-1.106;2022-08-19T04:40:47;1;0;
45351;PMS7003;31086;51.702;-1.106;2022-08-19T04:43:16;0;0;
45351;PMS7003;31086;51.702;-1.106;2022-08-19T04:45:44;0;0;
45351;PMS7003;31086;51.702;-1.106;2022-08-19T04:48:13;1;1;
45351;PMS7003;31086;51.702;-1.106;2022-08-19T04:50:42;1;1;
45351;PMS7003;31086;51.702;-1.106;2022-08-19T04:53:09;2;1;
45351;PMS7003;31086;51.702;-1.106;2022-08-19T04:55:38;1;1;
45351;PMS7003;31086;51.702;-1.106;2022-08-19T04:58:07;3;1;
45351;PMS7003;31086;51.702;-1.106;2022-08-19T05:00:37;2;1;
45351;PMS7003;31086;51.702;-1.106;2022-08-19T05:03:05;1;1;
45351;PMS7003;31086;51.702;-1.106;2022-08-19T05:05:33;1;0;
45351;PMS7003;31086;51.702;-1.106;2022-08-19T05:08:03;3;1;
45351;PMS7003;31086;51.702;-1.106;2022-08-19T05:10:31;2;1;
45351;PMS7003;31086;51.702;-1.106;2022-08-19T05:13:02;3;2;
45351;PMS7003;31086;51.702;-1.106;2022-08-19T05:15:30;2;2;
45351;PMS7003;31086;51.702;-1.106;2022-08-19T05:17:58;1;1;
45351;PMS7003;31086;51.702;-1.106;2022-08-19T05:20:25;3;1;
45351;PMS7003;31086;51.702;-1.106;2022-08-19T05:22:52;2;2;
45351;PMS7003;31086;51.702;-1.106;2022-08-19T05:25:20;4;2;
45351;PMS7003;31086;51.702;-1.106;2022-08-19T05:27:47;2;2;
45351;PMS7003;31086;51.702;-1.106;2022-08-19T05:30:16;2;1;
45351;PMS7003;31086;51.702;-1.106;2022-08-19T05:32:43;4;2;
45351;PMS7003;31086;51.702;-1.106;2022-08-19T05:35:10;4;2;
45351;PMS7003;31086;51.702;-1.106;2022-08-19T05:37:38;2;1;
45351;PMS7003;31086;51.702;-1.106;2022-08-19T05:40:05;2;2;
45351;PMS7003;31086;51.702;-1.106;2022-08-19T05:42:34;4;2;
45351;PMS7003;31086;51.702;-1.106;2022-08-19T05:45:01;3;2;
45351;PMS7003;31086;51.702;-1.106;2022-08-19T05:47:29;3;2;
45351;PMS7003;31086;51.702;-1.106;2022-08-19T05:49:56;3;3;
45351;PMS7003;31086;51.702;-1.106;2022-08-19T05:52:23;4;2;
45351;PMS7003;31086;51.702;-1.106;2022-08-19T05:54:50;4;3;
45351;PMS7003;31086;51.702;-1.106;2022-08-19T05:57:18;3;3;
45351;PMS7003;31086;51.702;-1.106;2022-08-19T05:59:45;4;2;
45351;PMS7003;31086;51.702;-1.106;2022-08-19T06:02:13;3;2;
45351;PMS7003;31086;51.702;-1.106;2022-08-19T06:04:40;2;2;
45351;PMS7003;31086;51.702;-1.106;2022-08-19T06:07:07;2;2;
45351;PMS7003;31086;51.702;-1.106;2022-08-19T06:09:35;3;2;
45351;PMS7003;31086;51.702;-1.106;2022-08-19T06:12:02;4;3;
45351;PMS7003;31086;51.702;-1.106;2022-08-19T06:14:31;3;3;
45351;PMS7003;31086;51.702;-1.106;2022-08-19T06:17:00;4;3;
45351;PMS7003;31086;51.702;-1.106;2022-08-19T06:19:28;3;1;
45351;PMS7003;31086;51.702;-1.106;2022-08-19T06:21:57;3;1;
45351;PMS7003;31086;51.702;-1.106;2022-08-19T06:24:26;3;2;
45351;PMS7003;31086;51.702;-1.106;2022-08-19T06:26:55;5;2;
45351;PMS7003;31086;51.702;-1.106;2022-08-19T06:29:24;4;2;
45351;PMS7003;31086;51.702;-1.106;2022-08-19T06:31:54;7;5;
45351;PMS7003;31086;51.702;-1.106;2022-08-19T06:34:23;6;3;
45351;PMS7003;31086;51.702;-1.106;2022-08-19T06:36:51;4;2;
45351;PMS7003;31086;51.702;-1.106;2022-08-19T06:39:20;4;3;
45351;PMS7003;31086;51.702;-1.106;2022-08-19T06:41:50;7;2;
45351;PMS7003;31086;51.702;-1.106;2022-08-19T06:44:20;4;3;
45351;PMS7003;31086;51.702;-1.106;2022-08-19T06:46:48;3;1;
45351;PMS7003;31086;51.702;-1.106;2022-08-19T06:49:16;3;2;
45351;PMS7003;31086;51.702;-1.106;2022-08-19T06:51:44;8;4;
45351;PMS7003;31086;51.702;-1.106;2022-08-19T06:54:14;4;2;
45351;PMS7003;31086;51.702;-1.106;2022-08-19T06:56:42;6;3;
45351;PMS7003;31086;51.702;-1.106;2022-08-19T06:59:10;3;3;
45351;PMS7003;31086;51.702;-1.106;2022-08-19T07:01:39;4;3;
45351;PMS7003;31086;51.702;-1.106;2022-08-19T07:04:08;7;3;
45351;PMS7003;31086;51.702;-1.106;2022-08-19T07:06:36;7;5;
45351;PMS7003;31086;51.702;-1.106;2022-08-19T07:09:04;5;3;
45351;PMS7003;31086;51.702;-1.106;2022-08-19T07:11:32;6;4;
45351;PMS7003;31086;51.702;-1.106;2022-08-19T07:14:00;7;2;
45351;PMS7003;31086;51.702;-1.106;2022-08-19T07:16:28;5;3;
45351;PMS7003;31086;51.702;-1.106;2022-08-19T07:18:55;3;3;
45351;PMS7003;31086;51.702;-1.106;2022-08-19T07:21:23;5;3;
45351;PMS7003;31086;51.702;-1.106;2022-08-19T07:23:52;3;3;
45351;PMS7003;31086;51.702;-1.106;2022-08-19T07:26:21;6;3;
45351;PMS7003;31086;51.702;-1.106;2022-08-19T07:28:52;6;4;
45351;PMS7003;31086;51.702;-1.106;2022-08-19T07:31:21;6;4;
45351;PMS7003;31086;51.702;-1.106;2022-08-19T07:33:50;6;3;
45351;PMS7003;31086;51.702;-1.106;2022-08-19T07:36:20;7;3;
45351;PMS7003;31086;51.702;-1.106;2022-08-19T07:38:49;4;3;
45351;PMS7003;31086;51.702;-1.106;2022-08-19T07:41:19;4;3;
45351;PMS7003;31086;51.702;-1.106;2022-08-19T07:43:48;2;1;
45351;PMS7003;31086;51.702;-1.106;2022-08-19T07:46:16;4;2;
45351;PMS7003;31086;51.702;-1.106;2022-08-19T07:48:44;3;2;
45351;PMS7003;31086;51.702;-1.106;2022-08-19T07:51:12;5;3;
45351;PMS7003;31086;51.702;-1.106;2022-08-19T07:53:41;5;3;
45351;PMS7003;31086;51.702;-1.106;2022-08-19T07:56:07;9;3;
45351;PMS7003;31086;51.702;-1.106;2022-08-19T07:58:36;4;3;
45351;PMS7003;31086;51.702;-1.106;2022-08-19T08:01:06;4;1;
45351;PMS7003;31086;51.702;-1.106;2022-08-19T08:03:36;2;1;
45351;PMS7003;31086;51.702;-1.106;2022-08-19T08:06:04;5;4;
45351;PMS7003;31086;51.702;-1.106;2022-08-19T08:08:32;4;2;
45351;PMS7003;31086;51.702;-1.106;2022-08-19T08:11:01;5;3;
45351;PMS7003;31086;51.702;-1.106;2022-08-19T08:13:28;5;3;
45351;PMS7003;31086;51.702;-1.106;2022-08-19T08:15:56;5;3;
45351;PMS7003;31086;51.702;-1.106;2022-08-19T08:18:23;3;3;
45351;PMS7003;31086;51.702;-1.106;2022-08-19T08:20:51;3;1;
45351;PMS7003;31086;51.702;-1.106;2022-08-19T08:23:18;2;2;
45351;PMS7003;31086;51.702;-1.106;2022-08-19T08:25:46;5;3;
45351;PMS7003;31086;51.702;-1.106;2022-08-19T08:28:13;4;3;
45351;PMS7003;31086;51.702;-1.106;2022-08-19T08:30:41;5;3;
45351;PMS7003;31086;51.702;-1.106;2022-08-19T08:33:09;4;2;
45351;PMS7003;31086;51.702;-1.106;2022-08-19T08:35:37;5;4;
45351;PMS7003;31086;51.702;-1.106;2022-08-19T08:38:06;7;2;
45351;PMS7003;31086;51.702;-1.106;2022-08-19T08:40:38;7;3;
45351;PMS7003;31086;51.702;-1.106;2022-08-19T08:43:21;5;2;
45351;PMS7003;31086;51.702;-1.106;2022-08-19T08:45:52;3;2;
45351;PMS7003;31086;51.702;-1.106;2022-08-19T08:48:29;7;5;
45351;PMS7003;31086;51.702;-1.106;2022-08-19T08:51:03;5;3;
45351;PMS7003;31086;51.702;-1.106;2022-08-19T08:53:35;6;2;
45351;PMS7003;31086;51.702;-1.106;2022-08-19T08:56:06;8;3;
45351;PMS7003;31086;51.702;-1.106;2022-08-19T08:58:38;4;2;
45351;PMS7003;31086;51.702;-1.106;2022-08-19T09:01:12;3;2;
45351;PMS7003;31086;51.702;-1.106;2022-08-19T09:03:40;2;2;
45351;PMS7003;31086;51.702;-1.106;2022-08-19T09:06:12;3;2;
45351;PMS7003;31086;51.702;-1.106;2022-08-19T09:09:00;4;1;
45351;PMS7003;31086;51.702;-1.106;2022-08-19T09:11:34;5;3;
45351;PMS7003;31086;51.702;-1.106;2022-08-19T09:14:15;3;1;
45351;PMS7003;31086;51.702;-1.106;2022-08-19T09:16:56;2;2;
45351;PMS7003;31086;51.702;-1.106;2022-08-19T09:19:24;2;1;
45351;PMS7003;31086;51.702;-1.106;2022-08-19T09:21:52;4;2;
45351;PMS7003;31086;51.702;-1.106;2022-08-19T09:24:19;0;0;
45351;PMS7003;31086;51.702;-1.106;2022-08-19T09:26:46;3;1;
45351;PMS7003;31086;51.702;-1.106;2022-08-19T09:29:14;3;1;
45351;PMS7003;31086;51.702;-1.106;2022-08-19T09:31:41;6;1;
45351;PMS7003;31086;51.702;-1.106;2022-08-19T09:34:08;3;1;
45351;PMS7003;31086;51.702;-1.106;2022-08-19T09:36:35;5;1;
45351;PMS7003;31086;51.702;-1.106;2022-08-19T09:39:03;3;1;
45351;PMS7003;31086;51.702;-1.106;2022-08-19T09:41:32;0;0;
45351;PMS7003;31086;51.702;-1.106;2022-08-19T09:44:00;2;2;
45351;PMS7003;31086;51.702;-1.106;2022-08-19T09:46:27;3;0;
45351;PMS7003;31086;51.702;-1.106;2022-08-19T09:48:57;4;1;
45351;PMS7003;31086;51.702;-1.106;2022-08-19T09:51:26;4;2;
45351;PMS7003;31086;51.702;-1.106;2022-08-19T09:53:54;3;2;
45351;PMS7003;31086;51.702;-1.106;2022-08-19T09:56:25;3;2;
45351;PMS7003;31086;51.702;-1.106;2022-08-19T09:58:53;5;2;
45351;PMS7003;31086;51.702;-1.106;2022-08-19T10:01:21;7;0;
45351;PMS7003;31086;51.702;-1.106;2022-08-19T10:03:51;4;1;
45351;PMS7003;31086;51.702;-1.106;2022-08-19T10:06:21;5;1;
45351;PMS7003;31086;51.702;-1.106;2022-08-19T10:08:51;2;1;
45351;PMS7003;31086;51.702;-1.106;2022-08-19T10:11:19;5;0;
45351;PMS7003;31086;51.702;-1.106;2022-08-19T10:13:47;1;0;
45351;PMS7003;31086;51.702;-1.106;2022-08-19T10:16:15;2;1;
45351;PMS7003;31086;51.702;-1.106;2022-08-19T10:18:45;3;0;
45351;PMS7003;31086;51.702;-1.106;2022-08-19T10:21:13;3;1;
45351;PMS7003;31086;51.702;-1.106;2022-08-19T10:23:43;14;12;
45351;PMS7003;31086;51.702;-1.106;2022-08-19T10:26:14;11;11;
45351;PMS7003;31086;51.702;-1.106;2022-08-19T10:28:43;4;1;
45351;PMS7003;31086;51.702;-1.106;2022-08-19T10:31:11;5;4;
45351;PMS7003;31086;51.702;-1.106;2022-08-19T10:33:40;27;23;
45351;PMS7003;31086;51.702;-1.106;2022-08-19T10:36:09;13;9;
45351;PMS7003;31086;51.702;-1.106;2022-08-19T10:38:39;28;24;
45351;PMS7003;31086;51.702;-1.106;2022-08-19T10:41:08;5;2;
45351;PMS7003;31086;51.702;-1.106;2022-08-19T10:43:36;5;4;
45351;PMS7003;31086;51.702;-1.106;2022-08-19T10:46:04;3;1;
45351;PMS7003;31086;51.702;-1.106;2022-08-19T10:48:32;1;0;
45351;PMS7003;31086;51.702;-1.106;2022-08-19T10:51:00;3;2;
45351;PMS7003;31086;51.702;-1.106;2022-08-19T10:53:28;2;0;
45351;PMS7003;31086;51.702;-1.106;2022-08-19T10:55:55;1;1;
45351;PMS7003;31086;51.702;-1.106;2022-08-19T10:58:22;4;0;
45351;PMS7003;31086;51.702;-1.106;2022-08-19T11:00:51;1;1;
45351;PMS7003;31086;51.702;-1.106;2022-08-19T11:03:19;0;0;
45351;PMS7003;31086;51.702;-1.106;2022-08-19T11:05:56;5;2;
45351;PMS7003;31086;51.702;-1.106;2022-08-19T11:08:24;0;0;
45351;PMS7003;31086;51.702;-1.106;2022-08-19T11:10:51;3;1;
45351;PMS7003;31086;51.702;-1.106;2022-08-19T11:13:20;4;1;
45351;PMS7003;31086;51.702;-1.106;2022-08-19T11:15:47;3;0;
45351;PMS7003;31086;51.702;-1.106;2022-08-19T11:18:23;1;0;
45351;PMS7003;31086;51.702;-1.106;2022-08-19T11:20:51;2;1;
45351;PMS7003;31086;51.702;-1.106;2022-08-19T11:23:18;0;0;
45351;PMS7003;31086;51.702;-1.106;2022-08-19T11:25:45;2;0;
45351;PMS7003;31086;51.702;-1.106;2022-08-19T11:28:13;3;0;
45351;PMS7003;31086;51.702;-1.106;2022-08-19T11:30:40;1;0;
45351;PMS7003;31086;51.702;-1.106;2022-08-19T11:33:08;4;1;
45351;PMS7003;31086;51.702;-1.106;2022-08-19T11:35:38;0;0;
45351;PMS7003;31086;51.702;-1.106;2022-08-19T11:38:06;2;0;
45351;PMS7003;31086;51.702;-1.106;2022-08-19T11:40:34;2;0;
45351;PMS7003;31086;51.702;-1.106;2022-08-19T11:43:01;2;0;
45351;PMS7003;31086;51.702;-1.106;2022-08-19T11:45:29;0;0;
45351;PMS7003;31086;51.702;-1.106;2022-08-19T11:47:57;2;1;
45351;PMS7003;31086;51.702;-1.106;2022-08-19T11:50:24;1;0;
45351;PMS7003;31086;51.702;-1.106;2022-08-19T11:52:53;1;1;
45351;PMS7003;31086;51.702;-1.106;2022-08-19T11:55:21;3;0;
45351;PMS7003;31086;51.702;-1.106;2022-08-19T11:57:48;1;0;
45351;PMS7003;31086;51.702;-1.106;2022-08-19T12:00:15;1;1;
45351;PMS7003;31086;51.702;-1.106;2022-08-19T12:02:42;4;0;
45351;PMS7003;31086;51.702;-1.106;2022-08-19T12:05:09;1;1;
45351;PMS7003;31086;51.702;-1.106;2022-08-19T12:07:37;2;1;
45351;PMS7003;31086;51.702;-1.106;2022-08-19T12:10:04;2;1;
45351;PMS7003;31086;51.702;-1.106;2022-08-19T12:12:32;3;0;
45351;PMS7003;31086;51.702;-1.106;2022-08-19T12:14:59;2;1;
45351;PMS7003;31086;51.702;-1.106;2022-08-19T12:17:27;1;0;
45351;PMS7003;31086;51.702;-1.106;2022-08-19T12:19:54;2;1;
45351;PMS7003;31086;51.702;-1.106;2022-08-19T12:22:21;1;0;
45351;PMS7003;31086;51.702;-1.106;2022-08-19T12:24:48;0;0;
45351;PMS7003;31086;51.702;-1.106;2022-08-19T12:27:15;1;1;
45351;PMS7003;31086;51.702;-1.106;2022-08-19T12:29:42;2;1;
45351;PMS7003;31086;51.702;-1.106;2022-08-19T12:32:09;0;0;
45351;PMS7003;31086;51.702;-1.106;2022-08-19T12:34:37;1;0;
45351;PMS7003;31086;51.702;-1.106;2022-08-19T12:37:05;2;0;
45351;PMS7003;31086;51.702;-1.106;2022-08-19T12:39:34;2;2;
45351;PMS7003;31086;51.702;-1.106;2022-08-19T12:42:03;0;0;
45351;PMS7003;31086;51.702;-1.106;2022-08-19T12:44:31;1;1;
45351;PMS7003;31086;51.702;-1.106;2022-08-19T12:46:58;0;0;
45351;PMS7003;31086;51.702;-1.106;2022-08-19T12:49:26;1;1;
45351;PMS7003;31086;51.702;-1.106;2022-08-19T12:51:53;2;1;
45351;PMS7003;31086;51.702;-1.106;2022-08-19T12:54:21;2;0;
45351;PMS7003;31086;51.702;-1.106;2022-08-19T12:56:48;1;0;
45351;PMS7003;31086;51.702;-1.106;2022-08-19T12:59:15;0;0;
45351;PMS7003;31086;51.702;-1.106;2022-08-19T13:01:43;2;1;
45351;PMS7003;31086;51.702;-1.106;2022-08-19T13:04:10;1;0;
45351;PMS7003;31086;51.702;-1.106;2022-08-19T13:06:37;0;0;
45351;PMS7003;31086;51.702;-1.106;2022-08-19T13:09:05;1;0;
45351;PMS7003;31086;51.702;-1.106;2022-08-19T13:11:32;1;1;
45351;PMS7003;31086;51.702;-1.106;2022-08-19T13:14:00;1;1;
45351;PMS7003;31086;51.702;-1.106;2022-08-19T13:16:29;3;0;
45351;PMS7003;31086;51.702;-1.106;2022-08-19T13:18:57;1;1;
45351;PMS7003;31086;51.702;-1.106;2022-08-19T13:21:24;0;0;
45351;PMS7003;31086;51.702;-1.106;2022-08-19T13:23:53;5000;5000;
45351;PMS7003;31086;51.702;-1.106;2022-08-19T13:26:20;5000;5000;
45351;PMS7003;31086;51.702;-1.106;2022-08-19T13:28:48;3;1;
45351;PMS7003;31086;51.702;-1.106;2022-08-19T13:31:16;2;0;
45351;PMS7003;31086;51.702;-1.106;2022-08-19T13:33:45;3750;3750;
45351;PMS7003;31086;51.702;-1.106;2022-08-19T13:36:13;752;750;
45351;PMS7003;31086;51.702;-1.106;2022-08-19T13:38:40;5000;5000;
45351;PMS7003;31086;51.702;-1.106;2022-08-19T13:41:08;5000;5000;
45351;PMS7003;31086;51.702;-1.106;2022-08-19T13:43:35;5000;5000;
45351;PMS7003;31086;51.702;-1.106;2022-08-19T13:46:07;4724;4724;
45351;PMS7003;31086;51.702;-1.106;2022-08-19T13:48:36;4982;4982;
45351;PMS7003;31086;51.702;-1.106;2022-08-19T13:51:04;4982;4982;
45351;PMS7003;31086;51.702;-1.106;2022-08-19T13:53:32;5000;5000;
45351;PMS7003;31086;51.702;-1.106;2022-08-19T13:56:00;5000;5000;
45351;PMS7003;31086;51.702;-1.106;2022-08-19T13:58:31;4991;4991;
45351;PMS7003;31086;51.702;-1.106;2022-08-19T14:00:59;5000;5000;
45351;PMS7003;31086;51.702;-1.106;2022-08-19T14:03:26;4982;4982;
45351;PMS7003;31086;51.702;-1.106;2022-08-19T14:05:53;5000;5000;
45351;PMS7003;31086;51.702;-1.106;2022-08-19T14:08:21;5000;5000;
45351;PMS7003;31086;51.702;-1.106;2022-08-19T14:10:48;4991;4991;
45351;PMS7003;31086;51.702;-1.106;2022-08-19T14:13:16;4982;4982;
45351;PMS7003;31086;51.702;-1.106;2022-08-19T14:15:45;4991;4991;
45351;PMS7003;31086;51.702;-1.106;2022-08-19T14:18:12;5000;5000;
45351;PMS7003;31086;51.702;-1.106;2022-08-19T14:20:40;5008;5008;
45351;PMS7003;31086;51.702;-1.106;2022-08-19T14:23:08;4964;4964;
45351;PMS7003;31086;51.702;-1.106;2022-08-19T14:25:36;5000;5000;
45351;PMS7003;31086;51.702;-1.106;2022-08-19T14:28:03;5000;5000;
45351;PMS7003;31086;51.702;-1.106;2022-08-19T14:30:32;5000;5000;
45351;PMS7003;31086;51.702;-1.106;2022-08-19T14:33:01;5000;5000;
45351;PMS7003;31086;51.702;-1.106;2022-08-19T14:35:29;5000;5000;
45351;PMS7003;31086;51.702;-1.106;2022-08-19T14:37:58;5000;5000;
45351;PMS7003;31086;51.702;-1.106;2022-08-19T14:40:26;4991;4991;
45351;PMS7003;31086;51.702;-1.106;2022-08-19T14:42:55;5000;5000;
45351;PMS7003;31086;51.702;-1.106;2022-08-19T14:45:24;4982;4982;
45351;PMS7003;31086;51.702;-1.106;2022-08-19T14:47:52;4250;4250;
45351;PMS7003;31086;51.702;-1.106;2022-08-19T14:50:20;5000;5000;
45351;PMS7003;31086;51.702;-1.106;2022-08-19T14:52:48;5000;5000;
45351;PMS7003;31086;51.702;-1.106;2022-08-19T14:55:15;5000;5000;
45351;PMS7003;31086;51.702;-1.106;2022-08-19T14:57:44;2;0;
45351;PMS7003;31086;51.702;-1.106;2022-08-19T15:00:12;3992;3992;
45351;PMS7003;31086;51.702;-1.106;2022-08-19T15:02:41;3500;3500;
45351;PMS7003;31086;51.702;-1.106;2022-08-19T15:05:08;0;0;
45351;PMS7003;31086;51.702;-1.106;2022-08-19T15:07:36;3238;3238;
45351;PMS7003;31086;51.702;-1.106;2022-08-19T15:10:05;4991;4991;
45351;PMS7003;31086;51.702;-1.106;2022-08-19T15:12:34;5118;5118;
45351;PMS7003;31086;51.702;-1.106;2022-08-19T15:15:03;1000;1000;
45351;PMS7003;31086;51.702;-1.106;2022-08-19T15:17:31;4991;4991;
45351;PMS7003;31086;51.702;-1.106;2022-08-19T15:19:58;5008;5008;
45351;PMS7003;31086;51.702;-1.106;2022-08-19T15:22:26;5000;5000;
45351;PMS7003;31086;51.702;-1.106;2022-08-19T15:24:53;5000;5000;
45351;PMS7003;31086;51.702;-1.106;2022-08-19T15:27:20;253;251;
45351;PMS7003;31086;51.702;-1.106;2022-08-19T15:29:48;3;0;
45351;PMS7003;31086;51.702;-1.106;2022-08-19T15:32:15;5000;5000;
45351;PMS7003;31086;51.702;-1.106;2022-08-19T15:34:42;4991;4991;
45351;PMS7003;31086;51.702;-1.106;2022-08-19T15:37:10;5000;5000;
45351;PMS7003;31086;51.702;-1.106;2022-08-19T15:39:37;2;1;
45351;PMS7003;31086;51.702;-1.106;2022-08-19T15:42:04;4265;4265;
45351;PMS7003;31086;51.702;-1.106;2022-08-19T15:44:33;5000;5000;
45351;PMS7003;31086;51.702;-1.106;2022-08-19T15:47:00;4982;4982;
45351;PMS7003;31086;51.702;-1.106;2022-08-19T15:49:27;251;251;
45351;PMS7003;31086;51.702;-1.106;2022-08-19T15:51:55;4991;4991;
45351;PMS7003;31086;51.702;-1.106;2022-08-19T15:54:22;4929;4929;
45351;PMS7003;31086;51.702;-1.106;2022-08-19T15:56:50;5000;5000;
45351;PMS7003;31086;51.702;-1.106;2022-08-19T15:59:17;5000;5000;
45351;PMS7003;31086;51.702;-1.106;2022-08-19T16:01:44;4929;4929;
45351;PMS7003;31086;51.702;-1.106;2022-08-19T16:04:12;5000;5000;
45351;PMS7003;31086;51.702;-1.106;2022-08-19T16:06:40;5000;5000;
45351;PMS7003;31086;51.702;-1.106;2022-08-19T16:09:09;5000;5000;
45351;PMS7003;31086;51.702;-1.106;2022-08-19T16:11:36;5000;5000;
45351;PMS7003;31086;51.702;-1.106;2022-08-19T16:14:04;4991;4991;
45351;PMS7003;31086;51.702;-1.106;2022-08-19T16:16:32;5000;5000;
45351;PMS7003;31086;51.702;-1.106;2022-08-19T16:19:01;4991;4991;
45351;PMS7003;31086;51.702;-1.106;2022-08-19T16:21:30;5000;5000;
45351;PMS7003;31086;51.702;-1.106;2022-08-19T16:24:00;1754;1752;